This is the latest recevied weather packets stored in our database for station/object W0PE-1. If no packets are shown the sender has not sent any weather packets the latest 10 day(s).
| Time | Temp. | Humidity | Pressure | Rain* | Wind** | Luminosity | Snow |
|---|---|---|---|---|---|---|---|
| 1778173204 | 21.11° C | 68% | 1015.7 hPa | 0 mm | - | - | - |
| 1778172361 | 20.56° C | 70% | 1015.8 hPa | 0 mm | - | - | - |
| 1778171471 | 20° C | 73% | 1015.9 hPa | 0 mm | - | - | - |
| 1778170553 | 18.89° C | 78% | 1015.9 hPa | 0 mm | - | - | - |
| 1778169650 | 17.78° C | 81% | 1016 hPa | 0 mm | - | - | - |
| 1778168746 | 17.22° C | 83% | 1016.1 hPa | 0 mm | - | - | - |
| 1778167843 | 16.67° C | 86% | 1016.2 hPa | 0 mm | - | - | - |
| 1778166940 | 16.11° C | 87% | 1016.1 hPa | 0 mm | - | - | - |
| 1778166037 | 15.56° C | 87% | 1016.2 hPa | 0 mm | - | - | - |
| 1778165150 | 15° C | 88% | 1016.1 hPa | 0 mm | - | - | - |
| 1778164233 | 14.44° C | 88% | 1016.1 hPa | 0 mm | - | - | - |
| 1778163333 | 14.44° C | 89% | 1015.8 hPa | 0 mm | - | - | - |
| 1778162432 | 13.33° C | 88% | 1015.7 hPa | 0 mm | - | - | - |
| 1778161531 | 12.22° C | 87% | 1015.6 hPa | 0 mm | - | - | - |
| 1778160631 | 12.22° C | 86% | 1015.4 hPa | 0 mm | - | - | - |
| 1778159729 | 12.22° C | 86% | 1015.2 hPa | 0 mm | - | - | - |
| 1778158828 | 12.22° C | 86% | 1015.1 hPa | 0 mm | - | - | - |
| 1778157927 | 12.22° C | 85% | 1015.1 hPa | 0 mm | - | - | - |
| 1778157025 | 12.22° C | 85% | 1015.1 hPa | 0 mm | - | - | - |
| 1778156123 | 12.22° C | 85% | 1015.1 hPa | 0 mm | - | - | - |
| 1778155222 | 12.78° C | 84% | 1015.2 hPa | 0 mm | - | - | - |
| 1778154321 | 12.78° C | 84% | 1015.2 hPa | 0 mm | - | - | - |
| 1778153420 | 12.78° C | 84% | 1015.1 hPa | 0 mm | - | - | - |
| 1778152526 | 12.78° C | 83% | 1015.3 hPa | 0 mm | - | - | - |
| 1778151617 | 12.78° C | 83% | 1015.3 hPa | 0 mm | - | - | - |
* Rain latest hour (hover to see other rain measurements)
** Current wind speed in m/s (hover to see current wind gust speed)